Time;durP1;ratioP1;P1;durP2;ratioP2;P2;SDS_P1;SDS_P2;PMS_P1;PMS_P2;Temp;Humidity;BMP_temperature;BMP_pressure;BME280_temperature;BME280_humidity;BME280_pressure;Samples;Min_cycle;Max_cycle;Signal;HPM_P1;HPM_P2
2023/05/28 00:00:01;;;;;;;2.20;1.05;;;16.80;99.90;;;;;;5096002;28;20763;-52
2023/05/28 00:02:29;;;;;;;2.37;1.20;;;16.80;99.90;;;;;;5096797;28;20471;-54
2023/05/28 00:04:56;;;;;;;1.48;1.00;;;16.80;99.90;;;;;;5097344;28;20871;-55
2023/05/28 00:07:24;;;;;;;2.25;1.10;;;16.80;99.90;;;;;;5096588;28;20425;-52
2023/05/28 00:09:51;;;;;;;2.88;1.02;;;16.90;99.90;;;;;;5094687;28;20439;-53
2023/05/28 00:12:18;;;;;;;1.55;1.10;;;16.80;99.90;;;;;;5096891;28;20792;-55
2023/05/28 00:14:46;;;;;;;1.93;1.10;;;16.70;99.90;;;;;;5097064;28;20491;-56
2023/05/28 00:17:13;;;;;;;2.33;1.00;;;16.70;99.90;;;;;;5096861;28;20430;-54
2023/05/28 00:19:42;;;;;;;2.97;1.30;;;16.70;99.90;;;;;;5094949;28;20433;-57
2023/05/28 00:22:09;;;;;;;3.33;1.10;;;16.70;99.90;;;;;;5095917;28;20426;-53
2023/05/28 00:24:36;;;;;;;2.30;1.20;;;16.70;99.90;;;;;;5096997;28;21149;-55
2023/05/28 00:27:04;;;;;;;2.30;1.00;;;16.70;99.90;;;;;;5097185;28;20986;-55
2023/05/28 00:29:31;;;;;;;3.00;1.10;;;16.60;99.90;;;;;;5095552;28;20422;-51
2023/05/28 00:31:58;;;;;;;2.70;1.23;;;16.60;99.90;;;;;;5096264;28;20891;-53
2023/05/28 00:34:26;;;;;;;1.98;1.00;;;16.60;99.90;;;;;;5096962;28;20476;-54
2023/05/28 00:36:54;;;;;;;2.40;1.20;;;16.40;99.90;;;;;;5096117;28;20430;-54
2023/05/28 00:39:22;;;;;;;2.97;1.00;;;16.50;99.90;;;;;;5095997;28;20858;-55
2023/05/28 00:41:49;;;;;;;2.42;1.10;;;16.50;99.90;;;;;;5096476;28;20418;-53
2023/05/28 00:44:16;;;;;;;2.15;1.08;;;16.50;99.90;;;;;;5096772;28;20488;-51
2023/05/28 00:46:46;;;;;;;2.50;1.00;;;16.50;99.90;;;;;;5097335;28;20437;-53
2023/05/28 00:49:13;;;;;;;2.00;1.00;;;16.40;99.90;;;;;;5096202;28;20837;-55
2023/05/28 00:51:41;;;;;;;1.40;1.00;;;16.30;99.90;;;;;;5096091;28;20486;-54
2023/05/28 00:54:11;;;;;;;2.00;1.00;;;16.30;99.90;;;;;;5095449;28;20421;-55
2023/05/28 00:56:38;;;;;;;2.50;1.10;;;16.30;99.90;;;;;;5097005;28;20418;-54
2023/05/28 00:59:06;;;;;;;1.92;1.20;;;16.30;99.90;;;;;;5096333;28;20715;-55
2023/05/28 01:01:33;;;;;;;1.92;1.10;;;16.30;99.90;;;;;;5095585;28;20432;-53
2023/05/28 01:04:01;;;;;;;3.40;1.10;;;16.30;99.90;;;;;;5096985;28;20487;-49
2023/05/28 01:06:29;;;;;;;2.17;1.00;;;16.20;99.90;;;;;;5096346;28;20437;-55
2023/05/28 01:08:57;;;;;;;1.92;1.00;;;16.20;99.90;;;;;;5096968;28;20417;-55
2023/05/28 01:11:26;;;;;;;1.48;0.90;;;16.10;99.90;;;;;;5095212;28;20424;-50
2023/05/28 01:13:54;;;;;;;2.67;1.00;;;16.10;99.90;;;;;;5094771;28;20779;-53
2023/05/28 01:16:22;;;;;;;2.92;1.10;;;16.10;99.90;;;;;;5096403;28;20521;-50
2023/05/28 01:18:49;;;;;;;2.50;1.10;;;16.20;99.90;;;;;;5095983;28;20883;-54
2023/05/28 01:21:17;;;;;;;2.78;1.20;;;16.20;99.90;;;;;;5096181;28;20426;-53
2023/05/28 01:23:46;;;;;;;3.05;1.00;;;16.10;99.90;;;;;;5095800;28;20414;-54
2023/05/28 01:26:15;;;;;;;1.80;1.00;;;16.00;99.90;;;;;;5094327;28;20487;-52
2023/05/28 01:28:45;;;;;;;1.60;1.00;;;16.00;99.90;;;;;;5094963;28;20516;-52
2023/05/28 01:31:12;;;;;;;4.25;1.00;;;16.00;99.90;;;;;;5094548;28;20908;-51
2023/05/28 01:33:41;;;;;;;2.15;1.00;;;16.00;99.90;;;;;;5095458;28;20434;-51
2023/05/28 01:36:12;;;;;;;1.80;1.00;;;16.00;99.90;;;;;;5095221;28;20417;-53
2023/05/28 01:38:43;;;;;;;2.80;1.10;;;16.00;99.90;;;;;;5092810;28;20856;-53
2023/05/28 01:41:12;;;;;;;1.87;1.00;;;16.00;99.90;;;;;;5092598;28;20509;-55
2023/05/28 01:43:40;;;;;;;1.92;1.00;;;16.00;99.90;;;;;;5094065;28;20430;-53
2023/05/28 01:46:07;;;;;;;2.95;1.10;;;15.90;99.90;;;;;;5094569;28;20429;-54
2023/05/28 01:48:35;;;;;;;2.45;1.23;;;15.90;99.90;;;;;;5092782;28;20763;-55
2023/05/28 01:51:02;;;;;;;5.50;1.20;;;15.90;99.90;;;;;;5093900;28;20517;-53
2023/05/28 01:53:29;;;;;;;2.53;1.10;;;15.90;99.90;;;;;;5094969;28;20430;-52
2023/05/28 01:55:56;;;;;;;1.90;1.00;;;15.90;99.90;;;;;;5095404;28;20433;-54
2023/05/28 01:58:25;;;;;;;3.30;1.10;;;15.90;99.90;;;;;;5095536;28;20433;-50
2023/05/28 02:01:08;;;;;;;2.53;1.00;;;15.80;99.90;;;;;;5095130;28;20434;-50
2023/05/28 02:03:35;;;;;;;1.90;1.00;;;15.90;99.90;;;;;;5092426;28;20430;-48
2023/05/28 02:06:02;;;;;;;2.05;1.00;;;15.80;99.90;;;;;;5093326;28;20421;-51
2023/05/28 02:08:29;;;;;;;2.08;1.00;;;15.70;99.90;;;;;;5094432;28;20479;-53
2023/05/28 02:10:56;;;;;;;1.90;1.00;;;15.70;99.90;;;;;;5095230;28;20483;-50
2023/05/28 02:13:23;;;;;;;2.80;1.00;;;15.80;99.90;;;;;;5095057;28;20425;-52
2023/05/28 02:15:51;;;;;;;2.05;1.00;;;15.70;99.90;;;;;;5093992;28;20471;-51
2023/05/28 02:18:18;;;;;;;2.50;0.90;;;15.80;99.90;;;;;;5094838;28;20432;-53
2023/05/28 02:20:45;;;;;;;2.30;1.00;;;15.80;99.90;;;;;;5095065;28;20422;-54
2023/05/28 02:23:12;;;;;;;2.38;1.10;;;15.70;99.90;;;;;;5095146;28;20422;-51
2023/05/28 02:25:39;;;;;;;2.00;0.90;;;15.60;99.90;;;;;;5095234;28;20849;-52
2023/05/28 02:28:06;;;;;;;2.08;1.10;;;15.70;99.90;;;;;;5095167;28;21032;-55
2023/05/28 02:30:33;;;;;;;1.98;1.00;;;15.70;99.90;;;;;;5095112;28;20426;-53
2023/05/28 02:33:01;;;;;;;2.05;1.00;;;15.70;99.90;;;;;;5094752;28;20533;-54
2023/05/28 02:35:28;;;;;;;2.30;1.20;;;15.70;99.90;;;;;;5095208;28;20490;-53
2023/05/28 02:37:55;;;;;;;2.17;1.10;;;15.50;99.90;;;;;;5095445;28;20979;-54
2023/05/28 02:40:22;;;;;;;2.50;1.00;;;15.40;99.90;;;;;;5094964;28;20430;-55
2023/05/28 02:42:49;;;;;;;2.95;1.00;;;15.40;99.90;;;;;;5094863;28;20429;-55
2023/05/28 02:45:17;;;;;;;2.25;1.00;;;15.40;99.90;;;;;;5094544;28;20422;-49
2023/05/28 02:47:44;;;;;;;2.28;1.00;;;15.50;99.90;;;;;;5094803;28;20479;-52
2023/05/28 02:50:12;;;;;;;2.33;1.17;;;15.50;99.90;;;;;;5094549;28;20430;-53
2023/05/28 02:52:39;;;;;;;2.07;1.00;;;15.50;99.90;;;;;;5095054;28;20499;-52
2023/05/28 02:55:07;;;;;;;4.67;1.10;;;15.40;99.90;;;;;;5094769;28;20426;-54
2023/05/28 02:57:35;;;;;;;2.80;1.10;;;15.40;99.90;;;;;;5094010;28;20425;-53
2023/05/28 03:00:02;;;;;;;3.10;1.10;;;15.20;99.90;;;;;;5095585;28;20702;-53
2023/05/28 03:02:29;;;;;;;2.20;1.08;;;15.30;99.90;;;;;;5098794;28;20429;-53
2023/05/28 03:04:56;;;;;;;2.90;1.00;;;15.40;99.90;;;;;;5099287;28;20463;-51
2023/05/28 03:07:25;;;;;;;2.30;1.00;;;15.20;99.90;;;;;;5098587;28;20433;-54
2023/05/28 03:09:52;;;;;;;2.20;1.00;;;15.20;99.90;;;;;;5098188;28;20494;-52
2023/05/28 03:12:19;;;;;;;2.50;1.00;;;15.20;99.90;;;;;;5097713;28;20426;-52
2023/05/28 03:14:46;;;;;;;2.13;1.00;;;15.10;99.90;;;;;;5097412;28;20422;-55
2023/05/28 03:17:13;;;;;;;1.73;0.98;;;15.10;99.90;;;;;;5097856;28;20422;-55
2023/05/28 03:19:40;;;;;;;2.00;0.80;;;15.10;99.90;;;;;;5097977;28;20422;-53
2023/05/28 03:22:07;;;;;;;2.17;1.00;;;15.10;99.90;;;;;;5097870;28;20422;-50
2023/05/28 03:24:35;;;;;;;1.97;1.00;;;15.10;99.90;;;;;;5097148;28;20706;-53
2023/05/28 03:27:03;;;;;;;2.90;1.10;;;15.10;99.90;;;;;;5096806;28;20798;-52
2023/05/28 03:29:30;;;;;;;1.90;1.00;;;15.10;99.90;;;;;;5096384;28;20424;-50
2023/05/28 03:31:57;;;;;;;3.05;1.08;;;15.10;99.90;;;;;;5097111;28;20849;-51
2023/05/28 03:34:24;;;;;;;2.40;1.10;;;15.10;99.90;;;;;;5098165;28;20433;-55
2023/05/28 03:36:51;;;;;;;3.00;1.00;;;15.00;99.90;;;;;;5098499;28;20483;-52
2023/05/28 03:39:19;;;;;;;1.70;0.90;;;15.10;99.90;;;;;;5098074;28;20839;-55
2023/05/28 03:41:48;;;;;;;2.65;1.00;;;15.10;99.90;;;;;;5097141;28;20424;-55
2023/05/28 03:44:17;;;;;;;2.60;1.10;;;15.10;99.90;;;;;;5096217;28;20434;-51
2023/05/28 03:46:44;;;;;;;3.45;1.10;;;15.10;99.90;;;;;;5096979;28;20425;-52
2023/05/28 03:49:11;;;;;;;1.83;1.00;;;15.00;99.90;;;;;;5096946;28;20772;-51
2023/05/28 03:51:38;;;;;;;2.78;1.02;;;15.10;99.90;;;;;;5096239;28;20475;-53
2023/05/28 03:54:05;;;;;;;1.40;0.90;;;15.20;99.90;;;;;;5095859;28;20429;-53
2023/05/28 03:56:33;;;;;;;3.33;1.00;;;15.20;99.90;;;;;;5096070;28;20779;-52
2023/05/28 03:59:02;;;;;;;1.90;0.98;;;15.30;99.90;;;;;;5096379;28;20433;-52
2023/05/28 04:01:29;;;;;;;1.83;1.00;;;15.10;99.90;;;;;;5102805;28;20489;-53
2023/05/28 04:03:56;;;;;;;1.85;1.40;;;15.00;99.90;;;;;;5117780;28;20843;-51
2023/05/28 04:06:23;;;;;;;2.42;1.10;;;14.90;99.90;;;;;;5116464;28;20432;-52
2023/05/28 04:08:50;;;;;;;2.30;1.10;;;14.90;99.90;;;;;;5116758;28;20507;-53
2023/05/28 04:11:17;;;;;;;3.00;1.10;;;15.00;99.90;;;;;;5116849;28;20431;-53
2023/05/28 04:13:44;;;;;;;1.90;1.00;;;15.00;99.90;;;;;;5118201;28;20508;-52
2023/05/28 04:16:13;;;;;;;2.10;1.00;;;15.10;99.90;;;;;;5117855;28;20492;-55
2023/05/28 04:18:40;;;;;;;4.57;1.00;;;15.10;99.90;;;;;;5117476;28;20424;-53
2023/05/28 04:21:07;;;;;;;1.70;1.00;;;15.10;99.90;;;;;;5117095;28;20416;-53
2023/05/28 04:23:34;;;;;;;3.53;1.20;;;15.10;99.90;;;;;;5117661;28;20769;-53
2023/05/28 04:26:01;;;;;;;2.47;1.20;;;15.00;99.90;;;;;;5117425;28;20420;-51
2023/05/28 04:28:28;;;;;;;2.40;1.00;;;15.00;99.90;;;;;;5118060;28;20424;-52
2023/05/28 04:31:00;;;;;;;2.10;1.00;;;15.20;99.90;;;;;;5117787;28;20436;-50
2023/05/28 04:33:29;;;;;;;2.40;1.00;;;15.10;99.90;;;;;;5117461;28;20865;-49
2023/05/28 04:35:57;;;;;;;1.85;1.00;;;15.20;99.90;;;;;;5117457;28;20835;-52
2023/05/28 04:38:24;;;;;;;3.17;1.10;;;15.20;99.90;;;;;;5117610;28;20506;-54
2023/05/28 04:40:53;;;;;;;2.00;1.00;;;15.20;99.90;;;;;;5117500;28;20477;-51
2023/05/28 04:43:21;;;;;;;2.65;1.00;;;15.10;99.90;;;;;;5117356;28;20773;-54
2023/05/28 04:45:48;;;;;;;3.00;1.10;;;15.20;99.90;;;;;;5117351;28;20481;-53
2023/05/28 04:48:15;;;;;;;2.00;1.00;;;15.20;99.90;;;;;;5117236;28;20424;-50
2023/05/28 04:50:43;;;;;;;2.60;1.00;;;15.20;99.90;;;;;;5116882;28;20411;-51
2023/05/28 04:53:10;;;;;;;3.40;1.00;;;15.20;99.90;;;;;;5117299;28;20856;-48
2023/05/28 04:55:40;;;;;;;1.67;0.90;;;15.40;99.90;;;;;;5117553;28;20839;-49
2023/05/28 04:58:07;;;;;;;2.40;1.00;;;15.50;99.90;;;;;;5117311;28;20428;-50
2023/05/28 05:00:35;;;;;;;2.67;1.00;;;15.30;99.90;;;;;;5117062;28;20515;-54
2023/05/28 05:03:02;;;;;;;2.10;0.90;;;15.30;99.90;;;;;;5116664;28;20887;-53
2023/05/28 05:05:29;;;;;;;1.73;0.90;;;15.40;99.90;;;;;;5117226;28;20417;-54
2023/05/28 05:07:57;;;;;;;2.22;1.00;;;15.50;99.90;;;;;;5117335;28;20489;-53
2023/05/28 05:10:24;;;;;;;2.03;0.80;;;15.50;99.90;;;;;;5117031;28;20425;-49
2023/05/28 05:12:51;;;;;;;2.53;1.00;;;15.50;99.90;;;;;;5115421;28;20420;-54
2023/05/28 05:15:18;;;;;;;2.50;1.10;;;15.60;99.90;;;;;;5116326;28;20432;-53
2023/05/28 05:17:45;;;;;;;1.80;1.00;;;15.70;99.90;;;;;;5117313;28;20427;-50
2023/05/28 05:20:12;;;;;;;1.90;0.90;;;15.70;99.90;;;;;;5117371;28;20782;-53
2023/05/28 05:22:39;;;;;;;2.90;1.10;;;15.70;99.90;;;;;;5116213;28;20428;-54
2023/05/28 05:25:08;;;;;;;3.08;1.15;;;15.80;99.90;;;;;;5116756;28;20425;-49
2023/05/28 05:27:36;;;;;;;1.77;1.00;;;15.90;99.90;;;;;;5116463;28;20427;-50
2023/05/28 05:30:04;;;;;;;1.40;1.00;;;15.90;99.90;;;;;;5115899;28;20986;-50
2023/05/28 05:32:31;;;;;;;2.20;1.10;;;15.80;99.90;;;;;;5116113;28;20428;-51
2023/05/28 05:34:58;;;;;;;2.50;1.30;;;15.80;99.90;;;;;;5115795;28;20489;-48
2023/05/28 05:37:25;;;;;;;3.03;1.00;;;15.70;99.90;;;;;;5115775;28;20431;-50
2023/05/28 05:39:51;;;;;;;3.90;1.02;;;15.70;99.90;;;;;;5115602;28;20451;-49
2023/05/28 05:42:20;;;;;;;3.80;1.13;;;15.70;99.90;;;;;;5116461;28;20774;-51
2023/05/28 05:44:47;;;;;;;2.22;1.00;;;15.40;99.90;;;;;;5115538;28;20412;-53
2023/05/28 05:47:14;;;;;;;2.80;1.27;;;15.40;99.90;;;;;;5116456;28;20530;-53
2023/05/28 05:49:41;;;;;;;2.65;1.00;;;15.40;99.90;;;;;;5116494;28;20428;-55
2023/05/28 05:52:08;;;;;;;3.00;1.13;;;15.40;99.90;;;;;;5116470;28;20797;-54
2023/05/28 05:54:35;;;;;;;2.90;1.00;;;15.40;99.90;;;;;;5115913;28;20584;-53
2023/05/28 05:57:03;;;;;;;3.10;1.10;;;15.30;99.90;;;;;;5116016;28;20465;-51
2023/05/28 05:59:31;;;;;;;2.65;1.10;;;15.30;99.90;;;;;;5116096;28;20510;-53
2023/05/28 06:01:58;;;;;;;2.40;1.00;;;15.40;99.90;;;;;;5116105;28;20428;-51
2023/05/28 06:04:33;;;;;;;1.90;1.10;;;15.70;99.90;;;;;;5115934;28;20485;-53
2023/05/28 06:07:04;;;;;;;3.27;1.20;;;15.90;99.90;;;;;;5116386;28;20463;-52
2023/05/28 06:09:31;;;;;;;3.30;1.20;;;15.80;99.90;;;;;;5115818;28;20432;-54
2023/05/28 06:11:59;;;;;;;2.83;1.10;;;15.90;99.90;;;;;;5116083;28;20421;-53
2023/05/28 06:14:27;;;;;;;4.00;1.10;;;16.10;99.90;;;;;;5115441;28;20430;-58
2023/05/28 06:16:56;;;;;;;2.90;1.00;;;16.20;99.90;;;;;;5115921;28;20428;-53
2023/05/28 06:19:23;;;;;;;4.10;1.00;;;16.20;99.90;;;;;;5115972;28;20420;-52
2023/05/28 06:21:51;;;;;;;3.00;1.40;;;16.10;99.90;;;;;;5115599;28;20518;-50
2023/05/28 06:24:18;;;;;;;3.33;1.10;;;16.00;99.90;;;;;;5115890;28;20519;-53
2023/05/28 06:26:45;;;;;;;4.90;1.10;;;15.80;99.90;;;;;;5115488;28;20416;-53
2023/05/28 06:29:12;;;;;;;2.08;1.10;;;15.80;99.90;;;;;;5114231;28;20420;-54
2023/05/28 06:31:40;;;;;;;2.22;1.00;;;15.90;99.90;;;;;;5115338;28;20481;-54
2023/05/28 06:34:09;;;;;;;1.73;1.00;;;16.20;99.90;;;;;;5114146;28;20886;-53
2023/05/28 06:36:36;;;;;;;2.83;1.00;;;16.30;99.90;;;;;;5115122;28;20505;-53
2023/05/28 06:39:05;;;;;;;1.75;1.00;;;16.40;99.90;;;;;;5115439;28;20502;-51
2023/05/28 06:41:32;;;;;;;2.47;1.00;;;16.70;99.90;;;;;;5115500;28;20481;-53
2023/05/28 06:43:59;;;;;;;3.80;1.10;;;16.90;99.90;;;;;;5115063;28;20773;-54
2023/05/28 06:46:27;;;;;;;2.10;1.10;;;17.00;99.90;;;;;;5115506;28;20928;-59
2023/05/28 06:48:55;;;;;;;2.00;1.10;;;17.10;99.90;;;;;;5115103;28;20427;-58
2023/05/28 06:51:23;;;;;;;3.00;1.10;;;17.20;99.90;;;;;;5114245;28;20424;-60
2023/05/28 06:53:51;;;;;;;2.30;1.10;;;17.10;99.90;;;;;;5114300;28;20416;-58
2023/05/28 06:56:18;;;;;;;3.80;1.10;;;17.30;99.90;;;;;;5115141;28;20512;-60
2023/05/28 06:58:45;;;;;;;2.60;1.10;;;17.50;99.90;;;;;;5114791;28;20424;-58
2023/05/28 07:01:12;;;;;;;4.03;1.40;;;17.60;99.90;;;;;;5115497;28;20475;-59
2023/05/28 07:03:39;;;;;;;3.08;1.30;;;17.40;99.90;;;;;;5114934;28;20772;-59
2023/05/28 07:06:06;;;;;;;2.30;1.40;;;17.30;99.90;;;;;;5115234;28;20412;-58
2023/05/28 07:08:35;;;;;;;2.40;1.08;;;17.40;99.90;;;;;;5115128;28;20439;-59
2023/05/28 07:11:01;;;;;;;2.90;1.10;;;17.40;99.90;;;;;;5115254;28;20843;-58
2023/05/28 07:13:28;;;;;;;2.45;1.00;;;17.50;99.90;;;;;;5115427;28;20839;-59
2023/05/28 07:15:56;;;;;;;2.70;1.00;;;17.60;99.90;;;;;;5115050;28;20878;-58
2023/05/28 07:18:23;;;;;;;3.03;1.10;;;18.00;99.90;;;;;;5114650;28;20853;-58
2023/05/28 07:20:51;;;;;;;2.38;1.10;;;18.10;99.90;;;;;;5114929;28;20422;-59
2023/05/28 07:23:17;;;;;;;3.90;1.30;;;18.20;99.90;;;;;;5115358;28;20420;-59
2023/05/28 07:25:46;;;;;;;2.40;0.90;;;18.20;99.90;;;;;;5115145;28;20906;-59
2023/05/28 07:28:13;;;;;;;1.83;1.02;;;18.40;99.90;;;;;;5114258;28;20428;-59
2023/05/28 07:30:42;;;;;;;1.95;1.20;;;18.50;99.90;;;;;;5114252;28;20489;-59
2023/05/28 07:33:09;;;;;;;3.83;1.00;;;18.50;99.90;;;;;;5114492;28;20412;-58
2023/05/28 07:35:36;;;;;;;1.77;0.90;;;18.50;99.90;;;;;;5114488;28;20426;-58
2023/05/28 07:38:03;;;;;;;2.17;0.90;;;18.70;99.90;;;;;;5111420;28;20477;-59
2023/05/28 07:40:30;;;;;;;2.53;1.00;;;18.90;99.90;;;;;;5114024;28;20420;-59
2023/05/28 07:42:59;;;;;;;2.90;1.13;;;19.00;99.90;;;;;;5114567;28;20720;-60
2023/05/28 07:45:26;;;;;;;2.22;0.90;;;19.10;99.90;;;;;;5115227;28;20453;-60
2023/05/28 07:47:53;;;;;;;1.75;0.90;;;19.00;99.90;;;;;;5118759;28;20835;-59
2023/05/28 07:50:20;;;;;;;2.33;1.00;;;19.00;99.90;;;;;;5117602;28;20888;-59
2023/05/28 07:52:47;;;;;;;2.10;1.10;;;19.00;99.90;;;;;;5117844;28;20431;-55
2023/05/28 07:55:14;;;;;;;2.63;1.00;;;18.90;99.90;;;;;;5117527;28;20436;-53
2023/05/28 07:57:41;;;;;;;2.20;1.10;;;18.90;99.90;;;;;;5117413;28;20920;-52
2023/05/28 08:00:15;;;;;;;2.10;0.90;;;18.90;99.90;;;;;;5118041;28;20465;-53
2023/05/28 08:02:42;;;;;;;1.75;0.90;;;19.00;99.90;;;;;;5118213;28;20428;-52
2023/05/28 08:05:10;;;;;;;2.00;0.90;;;19.20;99.90;;;;;;5118212;28;20424;-49
2023/05/28 08:07:37;;;;;;;2.05;1.10;;;19.40;99.90;;;;;;5118123;28;20824;-52
2023/05/28 08:10:05;;;;;;;2.10;1.00;;;19.30;99.90;;;;;;5116782;28;20476;-52
2023/05/28 08:12:32;;;;;;;2.80;0.90;;;19.10;99.90;;;;;;5116382;28;20493;-55
2023/05/28 08:14:59;;;;;;;4.60;1.00;;;19.00;99.90;;;;;;5116632;28;20428;-53
2023/05/28 08:17:31;;;;;;;2.22;1.00;;;19.10;99.90;;;;;;5117377;28;20424;-53
2023/05/28 08:19:58;;;;;;;2.00;0.90;;;19.40;99.90;;;;;;5116952;28;20841;-50
2023/05/28 08:22:25;;;;;;;2.03;0.90;;;19.70;99.90;;;;;;5117474;28;20424;-54
2023/05/28 08:24:52;;;;;;;2.25;1.00;;;19.90;99.90;;;;;;5116996;28;20425;-53
2023/05/28 08:27:21;;;;;;;2.70;1.00;;;20.00;99.90;;;;;;5118106;28;20465;-50
2023/05/28 08:29:48;;;;;;;2.28;0.88;;;20.10;99.90;;;;;;5116597;28;20416;-55
2023/05/28 08:32:15;;;;;;;1.60;0.90;;;20.10;99.90;;;;;;5118292;28;20428;-55
2023/05/28 08:34:44;;;;;;;1.88;0.90;;;20.10;99.90;;;;;;5116918;28;20743;-54
2023/05/28 08:37:11;;;;;;;2.75;1.00;;;20.20;99.90;;;;;;5117348;28;20424;-52
2023/05/28 08:39:38;;;;;;;2.20;0.93;;;20.20;99.90;;;;;;5114848;28;20452;-53
2023/05/28 08:42:06;;;;;;;1.90;0.90;;;20.20;99.90;;;;;;5115167;28;20832;-54
2023/05/28 08:44:33;;;;;;;3.05;1.00;;;20.30;99.90;;;;;;5114682;28;20423;-53
2023/05/28 08:47:00;;;;;;;1.83;0.90;;;20.40;99.90;;;;;;5115003;28;20707;-54
2023/05/28 08:49:32;;;;;;;2.17;0.90;;;20.40;99.90;;;;;;5115202;28;20526;-54
2023/05/28 08:52:02;;;;;;;2.17;1.00;;;20.50;99.90;;;;;;5115397;28;20461;-52
2023/05/28 08:54:31;;;;;;;1.77;0.90;;;20.50;99.90;;;;;;5116098;28;20800;-51
2023/05/28 08:56:59;;;;;;;3.90;0.90;;;20.50;99.90;;;;;;5115369;28;20413;-52
2023/05/28 08:59:27;;;;;;;1.85;0.90;;;20.60;99.90;;;;;;5117024;28;20416;-53
2023/05/28 09:01:54;;;;;;;2.13;0.90;;;20.70;99.90;;;;;;5116618;28;20432;-54
2023/05/28 09:04:21;;;;;;;2.87;0.90;;;20.90;99.90;;;;;;5116323;28;20420;-52
2023/05/28 09:06:51;;;;;;;1.98;1.00;;;20.90;99.90;;;;;;5115730;28;20424;-52
2023/05/28 09:09:20;;;;;;;3.00;1.10;;;20.90;99.90;;;;;;5115598;28;20428;-54
2023/05/28 09:11:48;;;;;;;3.17;0.90;;;20.90;99.90;;;;;;5116028;28;20420;-51
2023/05/28 09:14:18;;;;;;;2.83;0.90;;;21.00;99.90;;;;;;5116711;28;20847;-55
2023/05/28 09:16:45;;;;;;;1.23;0.90;;;21.30;99.90;;;;;;5116667;28;20436;-54
2023/05/28 09:19:16;;;;;;;1.20;0.87;;;21.60;99.90;;;;;;5115385;28;20427;-53
2023/05/28 09:21:53;;;;;;;3.28;1.33;;;21.70;99.90;;;;;;5116221;28;20428;-54
2023/05/28 09:24:22;;;;;;;1.52;0.80;;;21.80;99.90;;;;;;5116361;28;20431;-54
2023/05/28 09:26:50;;;;;;;1.67;0.90;;;22.10;99.90;;;;;;5116283;28;20408;-55
2023/05/28 09:29:17;;;;;;;1.90;0.90;;;22.20;99.90;;;;;;5115735;28;20431;-54
2023/05/28 09:31:44;;;;;;;1.45;0.90;;;22.30;99.20;;;;;;5116582;28;20450;-52
2023/05/28 09:34:11;;;;;;;2.38;0.90;;;22.40;99.00;;;;;;5111231;28;20499;-54
2023/05/28 09:36:39;;;;;;;3.05;1.10;;;22.60;98.80;;;;;;5099954;28;20518;-52
2023/05/28 09:39:08;;;;;;;1.30;0.80;;;22.60;98.00;;;;;;5106664;28;20922;-50
2023/05/28 09:41:40;;;;;;;1.30;0.80;;;22.70;97.30;;;;;;5095145;28;20422;-53
2023/05/28 09:44:10;;;;;;;1.50;1.00;;;22.60;97.70;;;;;;5095184;28;20778;-52
2023/05/28 09:46:37;;;;;;;2.53;1.00;;;22.70;96.80;;;;;;5094963;28;20444;-55
2023/05/28 09:49:05;;;;;;;2.10;1.10;;;22.60;96.20;;;;;;5094077;28;20425;-50
2023/05/28 09:51:33;;;;;;;1.30;0.80;;;22.50;96.90;;;;;;5094528;28;20479;-56
2023/05/28 09:54:02;;;;;;;2.78;0.90;;;22.30;96.70;;;;;;5095164;28;20475;-55
2023/05/28 09:56:31;;;;;;;1.90;0.83;;;22.40;97.20;;;;;;5094878;28;20430;-53
2023/05/28 09:59:02;;;;;;;2.10;0.80;;;22.70;94.80;;;;;;5095433;28;20520;-55
2023/05/28 10:01:33;;;;;;;1.42;0.80;;;22.80;93.70;;;;;;5101941;28;20521;-56
2023/05/28 10:04:05;;;;;;;1.80;0.80;;;23.20;93.50;;;;;;5104392;28;20438;-55
2023/05/28 10:06:34;;;;;;;2.00;0.80;;;23.40;91.70;;;;;;5095405;28;20432;-56
2023/05/28 10:09:02;;;;;;;1.40;0.80;;;23.50;91.10;;;;;;5095022;28;20503;-60
2023/05/28 10:11:35;;;;;;;1.87;0.90;;;23.80;90.70;;;;;;5094023;28;20516;-54
2023/05/28 10:14:04;;;;;;;1.60;0.80;;;24.20;89.20;;;;;;5095458;28;20887;-56
2023/05/28 10:16:32;;;;;;;1.95;0.90;;;24.40;87.50;;;;;;5094661;28;20506;-54
2023/05/28 10:19:00;;;;;;;2.08;0.77;;;24.80;85.70;;;;;;5094568;28;20532;-57
2023/05/28 10:21:28;;;;;;;1.50;0.80;;;24.80;80.10;;;;;;5094457;28;20429;-56
2023/05/28 10:23:56;;;;;;;2.50;0.80;;;24.80;81.10;;;;;;5095022;28;20474;-56
2023/05/28 10:26:24;;;;;;;1.30;0.80;;;25.20;77.10;;;;;;5095278;28;20410;-55
2023/05/28 10:28:55;;;;;;;1.20;0.80;;;25.20;75.80;;;;;;5095326;28;20429;-55
2023/05/28 10:31:24;;;;;;;2.90;0.85;;;25.60;74.40;;;;;;5094171;28;20812;-56
2023/05/28 10:33:51;;;;;;;2.53;0.90;;;25.50;72.70;;;;;;5094409;28;20494;-57
2023/05/28 10:36:19;;;;;;;1.47;0.80;;;25.80;73.60;;;;;;5096826;28;20938;-55
2023/05/28 10:38:47;;;;;;;2.00;0.90;;;26.00;73.00;;;;;;5114811;28;20444;-56
2023/05/28 10:41:21;;;;;;;2.63;0.90;;;26.40;72.10;;;;;;5114007;28;20424;-55
2023/05/28 10:43:48;;;;;;;1.67;0.90;;;26.70;70.60;;;;;;5115219;28;20423;-55
2023/05/28 10:46:20;;;;;;;2.55;0.80;;;26.80;67.60;;;;;;5114619;28;20472;-55
2023/05/28 10:49:20;;;;;;;2.17;0.70;;;26.50;62.50;;;;;;5114592;28;20497;-54
2023/05/28 10:51:57;;;;;;;2.58;1.00;;;26.50;62.50;;;;;;5010863;28;20900;-55
2023/05/28 10:54:41;;;;;;;1.60;0.80;;;26.50;62.50;;;;;;5098989;28;20434;-56
2023/05/28 10:57:12;;;;;;;1.50;0.80;;;26.80;61.00;;;;;;5115011;28;20428;-56
2023/05/28 10:59:44;;;;;;;2.13;0.90;;;26.60;61.30;;;;;;5114579;28;20420;-54
2023/05/28 11:02:11;;;;;;;1.90;1.00;;;26.70;66.40;;;;;;5112753;28;20440;-56
2023/05/28 11:04:40;;;;;;;2.38;1.00;;;26.60;66.90;;;;;;5114148;28;20432;-54
2023/05/28 11:07:08;;;;;;;1.40;0.90;;;26.80;67.10;;;;;;5115057;28;20435;-55
2023/05/28 11:09:36;;;;;;;2.25;0.90;;;27.30;66.10;;;;;;5114326;28;20431;-57
2023/05/28 11:12:03;;;;;;;2.10;0.90;;;27.30;64.00;;;;;;5113255;28;20412;-55
2023/05/28 11:14:35;;;;;;;1.38;0.90;;;27.60;62.50;;;;;;5114411;28;20416;-57
2023/05/28 11:17:02;;;;;;;2.03;0.90;;;27.50;58.70;;;;;;5114762;28;20739;-56
2023/05/28 11:19:29;;;;;;;1.92;0.90;;;27.40;60.00;;;;;;5114753;28;20428;-57
2023/05/28 11:21:57;;;;;;;1.77;0.80;;;27.50;58.90;;;;;;5117822;28;20428;-58
2023/05/28 11:24:24;;;;;;;1.88;0.80;;;27.60;58.30;;;;;;5118668;28;20424;-56
2023/05/28 11:26:54;;;;;;;2.00;0.90;;;27.70;56.40;;;;;;5118895;28;20412;-58
2023/05/28 11:29:21;;;;;;;3.75;0.90;;;28.00;56.80;;;;;;5118872;28;20470;-57
2023/05/28 11:31:48;;;;;;;1.70;0.80;;;28.00;55.50;;;;;;5118568;28;20485;-58
2023/05/28 11:34:15;;;;;;;1.60;0.80;;;27.50;56.80;;;;;;5118574;28;20431;-58
2023/05/28 11:36:43;;;;;;;1.40;0.85;;;27.00;56.30;;;;;;5118049;28;20435;-57
2023/05/28 11:39:12;;;;;;;1.40;0.80;;;26.70;57.50;;;;;;5118779;28;20489;-57
2023/05/28 11:41:40;;;;;;;1.70;0.80;;;26.60;58.30;;;;;;5113515;28;20733;-58
2023/05/28 11:44:20;;;;;;;2.67;1.10;;;26.80;58.60;;;;;;5097050;28;20703;-57
2023/05/28 11:46:50;;;;;;;2.47;0.88;;;26.80;59.10;;;;;;5096789;28;20619;-59
2023/05/28 11:49:17;;;;;;;1.90;0.80;;;26.40;59.40;;;;;;5097979;28;20842;-57
2023/05/28 11:51:44;;;;;;;1.60;1.00;;;26.80;59.00;;;;;;5097806;28;20499;-58
2023/05/28 11:54:12;;;;;;;1.73;0.90;;;27.50;57.30;;;;;;5096018;28;20776;-58
2023/05/28 11:56:39;;;;;;;1.60;0.90;;;28.00;55.30;;;;;;5096717;28;20422;-57
2023/05/28 11:59:06;;;;;;;2.10;1.00;;;28.40;55.50;;;;;;5097708;28;20426;-57
2023/05/28 12:01:34;;;;;;;2.05;0.70;;;28.20;54.60;;;;;;5097839;28;20849;-58
2023/05/28 12:04:06;;;;;;;2.20;0.90;;;28.10;54.00;;;;;;5097413;28;20500;-57
2023/05/28 12:06:33;;;;;;;1.63;0.88;;;28.10;55.00;;;;;;5098603;28;20525;-57
2023/05/28 12:09:04;;;;;;;1.70;0.80;;;28.20;53.40;;;;;;5113772;28;20416;-57
2023/05/28 12:11:33;;;;;;;3.73;0.80;;;28.00;53.30;;;;;;5117062;28;20416;-59
2023/05/28 12:14:09;;;;;;;1.30;0.90;;;28.20;53.00;;;;;;5115811;28;20473;-58
2023/05/28 12:16:46;;;;;;;2.30;1.00;;;28.50;52.90;;;;;;5115535;28;20527;-58
2023/05/28 12:19:14;;;;;;;1.80;0.80;;;28.70;49.30;;;;;;5116718;28;20789;-58
2023/05/28 12:21:41;;;;;;;1.67;0.80;;;28.60;49.50;;;;;;5118037;28;20432;-57
2023/05/28 12:24:14;;;;;;;1.60;0.90;;;29.00;49.10;;;;;;5115909;28;20444;-58
2023/05/28 12:26:43;;;;;;;2.72;0.80;;;28.50;49.20;;;;;;5117795;28;20426;-58
2023/05/28 12:29:10;;;;;;;1.90;0.90;;;28.60;49.10;;;;;;5117085;28;20543;-57
2023/05/28 12:31:37;;;;;;;2.50;0.90;;;28.70;48.90;;;;;;5116051;28;20727;-57
2023/05/28 12:34:04;;;;;;;1.88;0.80;;;28.70;49.40;;;;;;5115283;28;20432;-58
2023/05/28 12:36:32;;;;;;;1.73;0.80;;;28.70;49.30;;;;;;5115962;28;20432;-58
2023/05/28 12:38:59;;;;;;;1.15;0.80;;;28.70;49.80;;;;;;5116539;28;20424;-57
2023/05/28 12:41:26;;;;;;;1.30;0.90;;;28.90;48.10;;;;;;5116769;28;20416;-58
2023/05/28 12:43:54;;;;;;;1.65;0.70;;;29.10;48.30;;;;;;5116493;28;20428;-58
2023/05/28 12:46:22;;;;;;;1.90;1.00;;;29.00;47.60;;;;;;5115020;28;20859;-57
2023/05/28 12:48:49;;;;;;;1.40;0.80;;;28.80;47.60;;;;;;5116462;28;20428;-56
2023/05/28 12:51:16;;;;;;;1.40;0.80;;;28.30;48.60;;;;;;5116658;28;20835;-57